sensor_id;sensor_type;location;lat;lon;timestamp;pressure;altitude;pressure_sealevel;temperature;humidity
20889;BME280;10604;51.976;7.594;2022-11-15T00:02:17;100221.91;;;23.55;34.31
20889;BME280;10604;51.976;7.594;2022-11-15T00:04:43;100228.56;;;23.51;34.39
20889;BME280;10604;51.976;7.594;2022-11-15T00:07:08;100225.88;;;23.61;33.79
20889;BME280;10604;51.976;7.594;2022-11-15T00:09:33;100212.00;;;23.65;34.02
20889;BME280;10604;51.976;7.594;2022-11-15T00:11:58;100207.84;;;23.80;33.94
20889;BME280;10604;51.976;7.594;2022-11-15T00:14:24;100208.56;;;23.83;34.08
20889;BME280;10604;51.976;7.594;2022-11-15T00:16:49;100195.69;;;23.57;34.53
20889;BME280;10604;51.976;7.594;2022-11-15T00:19:14;100196.81;;;23.64;34.16
20889;BME280;10604;51.976;7.594;2022-11-15T00:21:40;100191.84;;;23.69;34.14
20889;BME280;10604;51.976;7.594;2022-11-15T00:24:06;100196.38;;;23.78;34.08
20889;BME280;10604;51.976;7.594;2022-11-15T00:26:31;100206.31;;;23.59;34.28
20889;BME280;10604;51.976;7.594;2022-11-15T00:28:56;100197.38;;;23.77;34.51
20889;BME280;10604;51.976;7.594;2022-11-15T00:31:22;100194.22;;;23.82;34.00
20889;BME280;10604;51.976;7.594;2022-11-15T00:33:47;100204.31;;;23.70;34.15
20889;BME280;10604;51.976;7.594;2022-11-15T00:36:13;100191.41;;;23.74;33.63
20889;BME280;10604;51.976;7.594;2022-11-15T00:38:39;100197.81;;;23.63;33.92
20889;BME280;10604;51.976;7.594;2022-11-15T00:41:05;100185.75;;;23.67;33.72
20889;BME280;10604;51.976;7.594;2022-11-15T00:43:32;100181.91;;;23.60;34.08
20889;BME280;10604;51.976;7.594;2022-11-15T00:45:58;100179.94;;;23.43;34.33
20889;BME280;10604;51.976;7.594;2022-11-15T00:48:23;100170.16;;;23.23;34.55
20889;BME280;10604;51.976;7.594;2022-11-15T00:50:49;100178.78;;;23.46;34.38
20889;BME280;10604;51.976;7.594;2022-11-15T00:53:16;100183.47;;;23.53;34.48
20889;BME280;10604;51.976;7.594;2022-11-15T00:55:41;100172.56;;;23.35;34.35
20889;BME280;10604;51.976;7.594;2022-11-15T00:58:07;100187.88;;;23.54;34.31
20889;BME280;10604;51.976;7.594;2022-11-15T01:00:32;100178.78;;;23.74;33.91
20889;BME280;10604;51.976;7.594;2022-11-15T01:02:57;100168.63;;;23.59;34.67
20889;BME280;10604;51.976;7.594;2022-11-15T01:05:23;100167.88;;;23.66;34.18
20889;BME280;10604;51.976;7.594;2022-11-15T01:07:55;100161.38;;;23.59;34.61
20889;BME280;10604;51.976;7.594;2022-11-15T01:10:21;100168.00;;;23.74;34.48
20889;BME280;10604;51.976;7.594;2022-11-15T01:12:47;100163.75;;;23.81;34.72
20889;BME280;10604;51.976;7.594;2022-11-15T01:18:35;100164.50;;;23.64;34.48
20889;BME280;10604;51.976;7.594;2022-11-15T01:21:05;100164.28;;;23.95;34.47
20889;BME280;10604;51.976;7.594;2022-11-15T01:23:30;100157.41;;;23.63;34.98
20889;BME280;10604;51.976;7.594;2022-11-15T01:26:00;100157.22;;;23.74;34.46
20889;BME280;10604;51.976;7.594;2022-11-15T01:28:33;100154.69;;;23.25;35.43
20889;BME280;10604;51.976;7.594;2022-11-15T01:31:00;100148.72;;;22.92;36.19
20889;BME280;10604;51.976;7.594;2022-11-15T01:33:26;100140.66;;;22.92;35.95
20889;BME280;10604;51.976;7.594;2022-11-15T01:35:51;100141.91;;;22.88;36.17
20889;BME280;10604;51.976;7.594;2022-11-15T01:38:16;100138.81;;;22.93;36.07
20889;BME280;10604;51.976;7.594;2022-11-15T01:40:42;100141.38;;;23.14;36.16
20889;BME280;10604;51.976;7.594;2022-11-15T01:43:24;100143.09;;;23.15;36.14
20889;BME280;10604;51.976;7.594;2022-11-15T01:45:54;100144.22;;;23.12;36.20
20889;BME280;10604;51.976;7.594;2022-11-15T01:48:22;100143.50;;;23.20;36.08
20889;BME280;10604;51.976;7.594;2022-11-15T01:50:50;100139.25;;;23.27;35.78
20889;BME280;10604;51.976;7.594;2022-11-15T01:53:17;100129.75;;;23.13;36.42
20889;BME280;10604;51.976;7.594;2022-11-15T01:55:44;100130.31;;;23.17;36.23
20889;BME280;10604;51.976;7.594;2022-11-15T01:58:09;100127.19;;;23.31;36.19
20889;BME280;10604;51.976;7.594;2022-11-15T02:00:35;100126.50;;;23.19;36.20
20889;BME280;10604;51.976;7.594;2022-11-15T02:03:02;100125.53;;;23.30;36.08
20889;BME280;10604;51.976;7.594;2022-11-15T02:05:28;100126.06;;;23.24;36.32
20889;BME280;10604;51.976;7.594;2022-11-15T02:07:55;100123.81;;;23.29;36.53
20889;BME280;10604;51.976;7.594;2022-11-15T02:10:23;100123.25;;;23.35;36.80
20889;BME280;10604;51.976;7.594;2022-11-15T02:12:50;100121.84;;;23.50;36.73
20889;BME280;10604;51.976;7.594;2022-11-15T02:15:17;100123.25;;;23.45;36.90
20889;BME280;10604;51.976;7.594;2022-11-15T02:23:37;100109.91;;;23.62;37.04
20889;BME280;10604;51.976;7.594;2022-11-15T02:26:34;100107.03;;;23.73;36.65
20889;BME280;10604;51.976;7.594;2022-11-15T02:29:10;100105.38;;;23.72;37.11
20889;BME280;10604;51.976;7.594;2022-11-15T02:31:53;100104.78;;;23.78;36.04
20889;BME280;10604;51.976;7.594;2022-11-15T02:37:07;100098.09;;;24.29;36.50
20889;BME280;10604;51.976;7.594;2022-11-15T02:39:41;100094.56;;;24.46;36.14
20889;BME280;10604;51.976;7.594;2022-11-15T02:42:19;100096.47;;;24.64;35.73
20889;BME280;10604;51.976;7.594;2022-11-15T02:45:07;100086.28;;;24.57;36.17
20889;BME280;10604;51.976;7.594;2022-11-15T02:47:41;100080.81;;;24.49;36.32
20889;BME280;10604;51.976;7.594;2022-11-15T02:50:11;100083.94;;;24.90;35.84
20889;BME280;10604;51.976;7.594;2022-11-15T02:52:37;100085.06;;;24.70;36.24
20889;BME280;10604;51.976;7.594;2022-11-15T02:55:03;100082.88;;;24.73;36.32
20889;BME280;10604;51.976;7.594;2022-11-15T03:00:18;100098.94;;;24.75;36.39
20889;BME280;10604;51.976;7.594;2022-11-15T03:03:13;100082.63;;;24.94;36.25
20889;BME280;10604;51.976;7.594;2022-11-15T03:06:04;100086.91;;;24.87;36.04
20889;BME280;10604;51.976;7.594;2022-11-15T03:09:05;100087.84;;;24.78;36.65
20889;BME280;10604;51.976;7.594;2022-11-15T03:11:36;100082.13;;;24.81;36.70
20889;BME280;10604;51.976;7.594;2022-11-15T03:16:58;100089.50;;;24.61;37.03
20889;BME280;10604;51.976;7.594;2022-11-15T03:19:47;100091.84;;;24.19;37.66
20889;BME280;10604;51.976;7.594;2022-11-15T03:22:18;100087.84;;;24.78;37.15
20889;BME280;10604;51.976;7.594;2022-11-15T03:24:47;100099.16;;;24.81;36.91
20889;BME280;10604;51.976;7.594;2022-11-15T03:27:17;100094.75;;;24.90;36.66
20889;BME280;10604;51.976;7.594;2022-11-15T03:29:48;100095.00;;;24.87;37.20
20889;BME280;10604;51.976;7.594;2022-11-15T03:32:20;100104.09;;;25.13;36.89
20889;BME280;10604;51.976;7.594;2022-11-15T03:34:52;100093.91;;;25.07;36.54
20889;BME280;10604;51.976;7.594;2022-11-15T03:37:21;100101.69;;;24.92;36.82
20889;BME280;10604;51.976;7.594;2022-11-15T03:39:47;100096.13;;;25.12;37.04
20889;BME280;10604;51.976;7.594;2022-11-15T03:42:34;100091.50;;;25.04;37.25
20889;BME280;10604;51.976;7.594;2022-11-15T03:45:37;100091.09;;;25.17;36.66
20889;BME280;10604;51.976;7.594;2022-11-15T03:48:13;100091.75;;;24.93;37.54
20889;BME280;10604;51.976;7.594;2022-11-15T03:50:41;100083.22;;;24.88;37.09
20889;BME280;10604;51.976;7.594;2022-11-15T03:53:08;100083.97;;;25.08;36.88
20889;BME280;10604;51.976;7.594;2022-11-15T03:55:33;100089.88;;;25.11;37.38
20889;BME280;10604;51.976;7.594;2022-11-15T03:58:00;100084.91;;;24.89;37.65
20889;BME280;10604;51.976;7.594;2022-11-15T04:00:26;100084.63;;;25.27;36.66
20889;BME280;10604;51.976;7.594;2022-11-15T04:02:52;100081.34;;;24.88;38.05
20889;BME280;10604;51.976;7.594;2022-11-15T04:05:17;100081.47;;;24.51;38.17
20889;BME280;10604;51.976;7.594;2022-11-15T04:07:43;100079.34;;;24.73;38.52
20889;BME280;10604;51.976;7.594;2022-11-15T04:10:10;100078.00;;;25.04;37.96
20889;BME280;10604;51.976;7.594;2022-11-15T04:12:38;100081.91;;;24.74;38.02
20889;BME280;10604;51.976;7.594;2022-11-15T04:15:09;100075.97;;;24.71;38.92
20889;BME280;10604;51.976;7.594;2022-11-15T04:17:39;100066.69;;;24.55;39.24
20889;BME280;10604;51.976;7.594;2022-11-15T04:20:07;100076.88;;;24.62;38.92
20889;BME280;10604;51.976;7.594;2022-11-15T04:22:53;100071.09;;;24.74;38.60
20889;BME280;10604;51.976;7.594;2022-11-15T04:25:38;100074.75;;;24.83;39.16
20889;BME280;10604;51.976;7.594;2022-11-15T04:28:03;100081.28;;;24.80;38.82
20889;BME280;10604;51.976;7.594;2022-11-15T04:30:29;100081.78;;;25.11;38.70
20889;BME280;10604;51.976;7.594;2022-11-15T04:32:54;100080.84;;;24.85;39.13
20889;BME280;10604;51.976;7.594;2022-11-15T04:35:19;100077.72;;;25.07;38.53
20889;BME280;10604;51.976;7.594;2022-11-15T04:37:45;100075.84;;;24.90;39.05
20889;BME280;10604;51.976;7.594;2022-11-15T04:40:10;100075.31;;;25.04;38.94
20889;BME280;10604;51.976;7.594;2022-11-15T04:42:36;100076.97;;;25.23;38.46
20889;BME280;10604;51.976;7.594;2022-11-15T04:45:01;100072.59;;;25.04;38.72
20889;BME280;10604;51.976;7.594;2022-11-15T04:47:26;100075.06;;;25.15;39.08
20889;BME280;10604;51.976;7.594;2022-11-15T04:49:53;100069.97;;;25.12;38.74
20889;BME280;10604;51.976;7.594;2022-11-15T04:52:18;100062.38;;;25.33;38.84
20889;BME280;10604;51.976;7.594;2022-11-15T04:54:43;100061.19;;;25.10;39.27
20889;BME280;10604;51.976;7.594;2022-11-15T04:57:09;100058.63;;;25.26;39.09
20889;BME280;10604;51.976;7.594;2022-11-15T04:59:35;100054.88;;;25.45;38.36
20889;BME280;10604;51.976;7.594;2022-11-15T05:02:00;100058.34;;;25.38;38.60
20889;BME280;10604;51.976;7.594;2022-11-15T05:04:26;100059.03;;;25.83;38.41
20889;BME280;10604;51.976;7.594;2022-11-15T05:06:51;100067.91;;;25.50;38.29
20889;BME280;10604;51.976;7.594;2022-11-15T05:09:20;100063.03;;;25.27;39.02
20889;BME280;10604;51.976;7.594;2022-11-15T05:11:46;100071.44;;;25.24;38.96
20889;BME280;10604;51.976;7.594;2022-11-15T05:14:12;100074.47;;;25.21;39.31
20889;BME280;10604;51.976;7.594;2022-11-15T05:16:38;100076.84;;;25.68;38.39
20889;BME280;10604;51.976;7.594;2022-11-15T05:19:03;100066.66;;;25.62;38.50
20889;BME280;10604;51.976;7.594;2022-11-15T05:21:29;100071.78;;;25.29;39.07
20889;BME280;10604;51.976;7.594;2022-11-15T05:23:54;100078.44;;;25.17;38.93
20889;BME280;10604;51.976;7.594;2022-11-15T05:26:20;100067.44;;;25.28;39.17
20889;BME280;10604;51.976;7.594;2022-11-15T05:28:45;100066.81;;;25.17;39.15
20889;BME280;10604;51.976;7.594;2022-11-15T05:31:13;100062.06;;;24.93;39.45
20889;BME280;10604;51.976;7.594;2022-11-15T05:33:39;100064.13;;;24.99;39.02
20889;BME280;10604;51.976;7.594;2022-11-15T05:36:20;100063.69;;;25.29;39.25
20889;BME280;10604;51.976;7.594;2022-11-15T05:38:48;100064.03;;;25.09;39.07
20889;BME280;10604;51.976;7.594;2022-11-15T05:41:14;100066.28;;;25.13;39.16
20889;BME280;10604;51.976;7.594;2022-11-15T05:43:40;100053.00;;;25.02;39.54
20889;BME280;10604;51.976;7.594;2022-11-15T05:46:07;100054.47;;;24.96;39.58
20889;BME280;10604;51.976;7.594;2022-11-15T05:48:35;100054.53;;;25.22;39.20
20889;BME280;10604;51.976;7.594;2022-11-15T05:51:04;100050.50;;;25.01;39.37
20889;BME280;10604;51.976;7.594;2022-11-15T05:53:30;100056.41;;;25.04;39.25
20889;BME280;10604;51.976;7.594;2022-11-15T05:55:55;100047.31;;;25.05;39.10
20889;BME280;10604;51.976;7.594;2022-11-15T05:58:21;100047.13;;;25.24;38.61
20889;BME280;10604;51.976;7.594;2022-11-15T06:00:46;100055.16;;;24.81;39.23
20889;BME280;10604;51.976;7.594;2022-11-15T06:03:12;100043.97;;;25.11;38.46
20889;BME280;10604;51.976;7.594;2022-11-15T06:05:39;100047.44;;;25.21;38.74
20889;BME280;10604;51.976;7.594;2022-11-15T06:08:05;100043.72;;;24.87;38.58
20889;BME280;10604;51.976;7.594;2022-11-15T06:10:30;100053.34;;;24.99;39.26
20889;BME280;10604;51.976;7.594;2022-11-15T06:12:59;100047.81;;;25.26;38.24
20889;BME280;10604;51.976;7.594;2022-11-15T06:15:25;100048.06;;;25.15;38.80
20889;BME280;10604;51.976;7.594;2022-11-15T06:17:51;100052.56;;;25.07;38.82
20889;BME280;10604;51.976;7.594;2022-11-15T06:20:17;100060.38;;;25.35;38.56
20889;BME280;10604;51.976;7.594;2022-11-15T06:22:42;100058.06;;;25.41;38.20
20889;BME280;10604;51.976;7.594;2022-11-15T06:25:08;100060.47;;;25.52;38.60
20889;BME280;10604;51.976;7.594;2022-11-15T06:27:33;100055.53;;;25.65;37.93
20889;BME280;10604;51.976;7.594;2022-11-15T06:29:58;100060.47;;;25.52;38.07
20889;BME280;10604;51.976;7.594;2022-11-15T06:32:24;100052.84;;;25.21;38.32
20889;BME280;10604;51.976;7.594;2022-11-15T06:34:49;100056.84;;;25.17;38.70
20889;BME280;10604;51.976;7.594;2022-11-15T06:37:15;100050.53;;;25.26;38.39
20889;BME280;10604;51.976;7.594;2022-11-15T06:39:40;100060.09;;;25.03;39.26
20889;BME280;10604;51.976;7.594;2022-11-15T06:42:05;100065.72;;;25.10;39.51
20889;BME280;10604;51.976;7.594;2022-11-15T06:44:32;100065.38;;;25.74;38.36
20889;BME280;10604;51.976;7.594;2022-11-15T06:46:58;100070.69;;;25.58;38.43
20889;BME280;10604;51.976;7.594;2022-11-15T06:49:23;100070.78;;;25.48;38.44
20889;BME280;10604;51.976;7.594;2022-11-15T06:51:48;100068.84;;;25.41;38.69
20889;BME280;10604;51.976;7.594;2022-11-15T06:54:14;100074.56;;;25.38;38.84
20889;BME280;10604;51.976;7.594;2022-11-15T06:56:39;100071.50;;;25.32;38.81
20889;BME280;10604;51.976;7.594;2022-11-15T06:59:04;100078.19;;;25.46;38.94
20889;BME280;10604;51.976;7.594;2022-11-15T07:01:30;100073.38;;;25.14;39.17
20889;BME280;10604;51.976;7.594;2022-11-15T07:03:55;100079.22;;;25.27;39.18
20889;BME280;10604;51.976;7.594;2022-11-15T07:06:20;100083.22;;;25.23;39.16
20889;BME280;10604;51.976;7.594;2022-11-15T07:08:46;100080.81;;;25.38;39.06
20889;BME280;10604;51.976;7.594;2022-11-15T07:11:11;100081.78;;;25.55;38.78
20889;BME280;10604;51.976;7.594;2022-11-15T07:13:36;100091.41;;;25.31;39.29
20889;BME280;10604;51.976;7.594;2022-11-15T07:16:07;100086.28;;;25.64;38.79
20889;BME280;10604;51.976;7.594;2022-11-15T07:18:38;100087.84;;;25.49;39.13
20889;BME280;10604;51.976;7.594;2022-11-15T07:21:08;100094.13;;;25.75;38.63
20889;BME280;10604;51.976;7.594;2022-11-15T07:23:38;100106.59;;;25.50;38.90
20889;BME280;10604;51.976;7.594;2022-11-15T07:26:05;100098.69;;;25.13;39.72
20889;BME280;10604;51.976;7.594;2022-11-15T07:28:30;100100.53;;;24.95;40.03
20889;BME280;10604;51.976;7.594;2022-11-15T07:30:56;100101.34;;;25.49;39.28
20889;BME280;10604;51.976;7.594;2022-11-15T07:33:21;100109.00;;;25.35;40.05
20889;BME280;10604;51.976;7.594;2022-11-15T07:35:47;100101.44;;;24.86;40.79
20889;BME280;10604;51.976;7.594;2022-11-15T07:38:16;100104.56;;;25.70;39.41
20889;BME280;10604;51.976;7.594;2022-11-15T07:40:44;100108.75;;;25.64;39.57
20889;BME280;10604;51.976;7.594;2022-11-15T07:43:10;100104.91;;;24.96;41.43
20889;BME280;10604;51.976;7.594;2022-11-15T07:45:40;100105.75;;;26.01;39.16
20889;BME280;10604;51.976;7.594;2022-11-15T07:48:06;100107.22;;;26.22;38.98
20889;BME280;10604;51.976;7.594;2022-11-15T07:50:31;100109.63;;;26.25;39.04
20889;BME280;10604;51.976;7.594;2022-11-15T07:52:59;100105.38;;;26.56;38.89
20889;BME280;10604;51.976;7.594;2022-11-15T07:55:26;100101.97;;;26.54;38.47
20889;BME280;10604;51.976;7.594;2022-11-15T07:57:52;100110.31;;;25.75;39.99
20889;BME280;10604;51.976;7.594;2022-11-15T08:00:18;100109.59;;;25.91;39.91
20889;BME280;10604;51.976;7.594;2022-11-15T08:02:44;100105.28;;;25.36;40.36
20889;BME280;10604;51.976;7.594;2022-11-15T08:05:10;100101.72;;;26.05;39.41
20889;BME280;10604;51.976;7.594;2022-11-15T08:07:35;100103.84;;;26.20;38.45
20889;BME280;10604;51.976;7.594;2022-11-15T08:10:01;100098.22;;;26.47;38.12
20889;BME280;10604;51.976;7.594;2022-11-15T08:12:29;100103.22;;;26.26;39.19
20889;BME280;10604;51.976;7.594;2022-11-15T08:14:55;100097.06;;;26.58;37.65
20889;BME280;10604;51.976;7.594;2022-11-15T08:17:22;100102.66;;;26.56;37.65
20889;BME280;10604;51.976;7.594;2022-11-15T08:19:47;100098.94;;;26.65;37.69
20889;BME280;10604;51.976;7.594;2022-11-15T08:22:13;100106.84;;;26.50;37.43
20889;BME280;10604;51.976;7.594;2022-11-15T08:24:39;100105.41;;;26.30;37.89
20889;BME280;10604;51.976;7.594;2022-11-15T08:27:05;100104.09;;;26.00;38.13
20889;BME280;10604;51.976;7.594;2022-11-15T08:29:30;100105.34;;;26.14;37.99
20889;BME280;10604;51.976;7.594;2022-11-15T08:31:55;100103.56;;;25.71;38.45
20889;BME280;10604;51.976;7.594;2022-11-15T08:34:21;100100.03;;;26.04;38.25
20889;BME280;10604;51.976;7.594;2022-11-15T08:36:47;100095.72;;;25.86;38.21
20889;BME280;10604;51.976;7.594;2022-11-15T08:39:12;100101.41;;;25.57;38.77
20889;BME280;10604;51.976;7.594;2022-11-15T08:41:38;100097.44;;;24.90;39.85
20889;BME280;10604;51.976;7.594;2022-11-15T08:44:04;100092.38;;;25.48;39.12
20889;BME280;10604;51.976;7.594;2022-11-15T08:46:29;100095.41;;;25.63;38.39
20889;BME280;10604;51.976;7.594;2022-11-15T08:48:55;100087.25;;;25.19;38.81
20889;BME280;10604;51.976;7.594;2022-11-15T08:51:20;100084.56;;;25.19;39.14
20889;BME280;10604;51.976;7.594;2022-11-15T08:53:45;100096.13;;;25.73;37.96
20889;BME280;10604;51.976;7.594;2022-11-15T08:56:14;100091.56;;;25.99;37.45
20889;BME280;10604;51.976;7.594;2022-11-15T08:58:40;100085.84;;;25.77;37.31
20889;BME280;10604;51.976;7.594;2022-11-15T09:01:06;100086.88;;;25.58;37.85
20889;BME280;10604;51.976;7.594;2022-11-15T09:03:32;100088.50;;;25.07;38.18
20889;BME280;10604;51.976;7.594;2022-11-15T09:05:59;100088.91;;;25.56;37.76
20889;BME280;10604;51.976;7.594;2022-11-15T09:08:30;100086.22;;;26.07;36.42
20889;BME280;10604;51.976;7.594;2022-11-15T09:10:56;100085.69;;;25.34;38.06
20889;BME280;10604;51.976;7.594;2022-11-15T09:13:22;100084.47;;;25.98;37.03
20889;BME280;10604;51.976;7.594;2022-11-15T09:15:47;100086.75;;;26.19;36.30
20889;BME280;10604;51.976;7.594;2022-11-15T09:18:13;100084.75;;;25.95;36.65
20889;BME280;10604;51.976;7.594;2022-11-15T09:20:38;100093.06;;;25.68;36.50
20889;BME280;10604;51.976;7.594;2022-11-15T09:23:04;100088.75;;;26.17;36.29
20889;BME280;10604;51.976;7.594;2022-11-15T09:25:30;100075.09;;;24.52;37.93
20889;BME280;10604;51.976;7.594;2022-11-15T09:27:55;100071.69;;;26.17;36.05
20889;BME280;10604;51.976;7.594;2022-11-15T09:30:22;100077.28;;;26.57;35.38
20889;BME280;10604;51.976;7.594;2022-11-15T09:32:47;100081.53;;;26.68;35.45
20889;BME280;10604;51.976;7.594;2022-11-15T09:35:13;100084.00;;;26.45;35.61
20889;BME280;10604;51.976;7.594;2022-11-15T09:37:38;100087.59;;;26.20;35.40
20889;BME280;10604;51.976;7.594;2022-11-15T09:40:04;100080.00;;;25.89;36.07
20889;BME280;10604;51.976;7.594;2022-11-15T09:47:38;100074.25;;;25.84;36.34
20889;BME280;10604;51.976;7.594;2022-11-15T09:50:11;100076.53;;;26.39;35.40
20889;BME280;10604;51.976;7.594;2022-11-15T09:52:39;100073.94;;;26.79;34.33
20889;BME280;10604;51.976;7.594;2022-11-15T09:55:09;100075.69;;;26.97;34.31
20889;BME280;10604;51.976;7.594;2022-11-15T09:57:43;100071.31;;;27.04;34.37
20889;BME280;10604;51.976;7.594;2022-11-15T10:00:33;100074.34;;;27.09;34.12
20889;BME280;10604;51.976;7.594;2022-11-15T10:03:12;100073.72;;;26.15;34.77
20889;BME280;10604;51.976;7.594;2022-11-15T10:05:46;100080.09;;;26.89;33.53
20889;BME280;10604;51.976;7.594;2022-11-15T10:10:55;100074.34;;;27.41;33.23
20889;BME280;10604;51.976;7.594;2022-11-15T10:15:50;100071.28;;;27.36;32.32
20889;BME280;10604;51.976;7.594;2022-11-15T10:18:36;100068.59;;;27.52;32.53
20889;BME280;10604;51.976;7.594;2022-11-15T10:21:40;100061.03;;;27.95;31.86
20889;BME280;10604;51.976;7.594;2022-11-15T10:24:18;100056.94;;;28.15;31.08
20889;BME280;10604;51.976;7.594;2022-11-15T10:26:48;100065.47;;;27.88;31.11
20889;BME280;10604;51.976;7.594;2022-11-15T10:29:21;100065.03;;;28.23;30.69
20889;BME280;10604;51.976;7.594;2022-11-15T10:31:48;100069.63;;;29.07;30.08
20889;BME280;10604;51.976;7.594;2022-11-15T10:34:16;100061.69;;;28.83;30.13
20889;BME280;10604;51.976;7.594;2022-11-15T10:39:19;100059.03;;;29.58;28.88
20889;BME280;10604;51.976;7.594;2022-11-15T10:41:44;100060.03;;;29.94;29.09
20889;BME280;10604;51.976;7.594;2022-11-15T10:44:17;100038.13;;;30.32;28.30
20889;BME280;10604;51.976;7.594;2022-11-15T10:49:30;100038.44;;;28.50;28.78
20889;BME280;10604;51.976;7.594;2022-11-15T10:54:35;100027.88;;;27.85;29.48
20889;BME280;10604;51.976;7.594;2022-11-15T10:57:10;100026.66;;;28.88;29.20
20889;BME280;10604;51.976;7.594;2022-11-15T10:59:37;100017.59;;;28.11;28.75
20889;BME280;10604;51.976;7.594;2022-11-15T11:04:51;100010.34;;;29.63;27.86
20889;BME280;10604;51.976;7.594;2022-11-15T11:07:22;100014.56;;;29.13;28.95
20889;BME280;10604;51.976;7.594;2022-11-15T11:10:00;100014.13;;;28.87;29.19
20889;BME280;10604;51.976;7.594;2022-11-15T11:12:31;100010.25;;;29.04;28.99
20889;BME280;10604;51.976;7.594;2022-11-15T11:15:01;100005.69;;;28.74;28.95
20889;BME280;10604;51.976;7.594;2022-11-15T11:17:54;99990.44;;;28.73;29.19
20889;BME280;10604;51.976;7.594;2022-11-15T11:20:45;99994.34;;;29.53;27.99
20889;BME280;10604;51.976;7.594;2022-11-15T11:26:29;99991.81;;;29.14;27.63
20889;BME280;10604;51.976;7.594;2022-11-15T11:29:28;99984.03;;;29.11;27.84
20889;BME280;10604;51.976;7.594;2022-11-15T11:40:43;99973.34;;;27.72;29.09
20889;BME280;10604;51.976;7.594;2022-11-15T11:43:18;99975.13;;;28.80;28.80
20889;BME280;10604;51.976;7.594;2022-11-15T11:46:08;99969.31;;;28.60;28.84
20889;BME280;10604;51.976;7.594;2022-11-15T11:48:44;99967.00;;;28.26;28.63
20889;BME280;10604;51.976;7.594;2022-11-15T11:51:34;99974.47;;;26.81;29.69
20889;BME280;10604;51.976;7.594;2022-11-15T11:54:06;99964.34;;;26.92;30.42
20889;BME280;10604;51.976;7.594;2022-11-15T11:56:39;99962.78;;;28.24;28.58
20889;BME280;10604;51.976;7.594;2022-11-15T12:02:02;99955.44;;;28.32;28.06
20889;BME280;10604;51.976;7.594;2022-11-15T12:04:39;99952.81;;;27.14;28.61
20889;BME280;10604;51.976;7.594;2022-11-15T12:07:15;99941.91;;;28.24;28.24
20889;BME280;10604;51.976;7.594;2022-11-15T12:10:01;99948.34;;;27.53;28.29
20889;BME280;10604;51.976;7.594;2022-11-15T12:17:33;99923.25;;;28.75;27.69
20889;BME280;10604;51.976;7.594;2022-11-15T12:20:02;99930.25;;;29.21;27.18
20889;BME280;10604;51.976;7.594;2022-11-15T12:22:44;99920.09;;;28.18;28.06
20889;BME280;10604;51.976;7.594;2022-11-15T12:25:27;99921.00;;;28.02;28.60
20889;BME280;10604;51.976;7.594;2022-11-15T12:28:44;99920.00;;;27.95;28.66
20889;BME280;10604;51.976;7.594;2022-11-15T12:33:55;99913.41;;;27.58;29.39
20889;BME280;10604;51.976;7.594;2022-11-15T12:39:03;99918.25;;;28.10;28.85
20889;BME280;10604;51.976;7.594;2022-11-15T12:41:34;99908.88;;;28.43;27.70
20889;BME280;10604;51.976;7.594;2022-11-15T12:44:00;99912.59;;;28.42;28.02
20889;BME280;10604;51.976;7.594;2022-11-15T12:51:22;99910.47;;;27.76;27.83
20889;BME280;10604;51.976;7.594;2022-11-15T12:53:47;99892.47;;;27.36;28.73
20889;BME280;10604;51.976;7.594;2022-11-15T13:07:03;99880.34;;;27.94;27.41
20889;BME280;10604;51.976;7.594;2022-11-15T13:12:07;99886.56;;;27.72;27.66
20889;BME280;10604;51.976;7.594;2022-11-15T13:14:56;99878.06;;;27.83;26.99
20889;BME280;10604;51.976;7.594;2022-11-15T13:17:23;99872.34;;;27.31;26.79
20889;BME280;10604;51.976;7.594;2022-11-15T13:20:02;99883.84;;;27.80;27.13
20889;BME280;10604;51.976;7.594;2022-11-15T13:22:38;99877.97;;;27.99;26.45
20889;BME280;10604;51.976;7.594;2022-11-15T13:25:17;99868.16;;;27.98;26.96
20889;BME280;10604;51.976;7.594;2022-11-15T13:27:46;99867.88;;;28.38;26.29
20889;BME280;10604;51.976;7.594;2022-11-15T13:30:31;99855.19;;;27.46;27.42
20889;BME280;10604;51.976;7.594;2022-11-15T13:33:13;99847.94;;;28.00;26.56
20889;BME280;10604;51.976;7.594;2022-11-15T13:35:41;99848.06;;;27.84;27.20
20889;BME280;10604;51.976;7.594;2022-11-15T13:38:19;99846.38;;;27.44;27.34
20889;BME280;10604;51.976;7.594;2022-11-15T13:40:50;99846.63;;;27.65;26.08
20889;BME280;10604;51.976;7.594;2022-11-15T13:43:42;99839.84;;;27.92;25.76
20889;BME280;10604;51.976;7.594;2022-11-15T13:46:27;99840.91;;;27.60;26.40
20889;BME280;10604;51.976;7.594;2022-11-15T13:48:58;99833.94;;;27.27;26.45
20889;BME280;10604;51.976;7.594;2022-11-15T13:51:33;99825.81;;;27.27;26.36
20889;BME280;10604;51.976;7.594;2022-11-15T13:54:08;99824.78;;;27.67;26.24
20889;BME280;10604;51.976;7.594;2022-11-15T13:56:38;99823.38;;;27.40;25.95
20889;BME280;10604;51.976;7.594;2022-11-15T13:59:19;99823.59;;;27.70;26.06
20889;BME280;10604;51.976;7.594;2022-11-15T14:01:49;99812.38;;;26.95;26.11
20889;BME280;10604;51.976;7.594;2022-11-15T14:04:19;99806.34;;;27.62;25.90
20889;BME280;10604;51.976;7.594;2022-11-15T14:06:52;99814.63;;;27.22;26.61
20889;BME280;10604;51.976;7.594;2022-11-15T14:11:58;99804.16;;;27.19;26.20
20889;BME280;10604;51.976;7.594;2022-11-15T14:14:25;99807.63;;;26.88;26.34
20889;BME280;10604;51.976;7.594;2022-11-15T14:16:53;99793.38;;;27.03;25.79
20889;BME280;10604;51.976;7.594;2022-11-15T14:22:46;99796.47;;;27.31;26.15
20889;BME280;10604;51.976;7.594;2022-11-15T14:25:19;99797.06;;;27.18;25.70
20889;BME280;10604;51.976;7.594;2022-11-15T14:30:35;99799.16;;;27.78;24.90
20889;BME280;10604;51.976;7.594;2022-11-15T14:33:01;99800.09;;;27.85;25.25
20889;BME280;10604;51.976;7.594;2022-11-15T14:35:26;99798.56;;;27.51;26.23
20889;BME280;10604;51.976;7.594;2022-11-15T14:37:52;99793.81;;;27.61;26.00